Time;durP1;ratioP1;P1;durP2;ratioP2;P2;SDS_P1;SDS_P2;PMS_P1;PMS_P2;Temp;Humidity;BMP_temperature;BMP_pressure;BME280_temperature;BME280_humidity;BME280_pressure;Samples;Min_cycle;Max_cycle;Signal;HPM_P1;HPM_P2
2021/06/28 00:00:16;;;;;;;9.47;6.77;;;22.10;92.90;;;22.11;85.55;98057.50;5061562;28;20645;-66
2021/06/28 00:02:45;;;;;;;7.40;6.70;;;22.00;93.00;;;22.06;85.65;98058.03;5058781;28;20690;-67
2021/06/28 00:05:16;;;;;;;10.17;6.60;;;21.90;93.10;;;22.02;85.79;98059.38;5059515;28;21048;-66
2021/06/28 00:07:47;;;;;;;7.80;7.10;;;21.90;93.30;;;21.98;86.08;98049.25;5061564;28;20682;-66
2021/06/28 00:10:20;;;;;;;7.63;7.03;;;21.90;93.30;;;21.97;86.33;98044.97;5058828;28;20633;-66
2021/06/28 00:12:50;;;;;;;7.83;7.03;;;21.80;93.40;;;21.95;85.27;98044.31;5063878;28;20684;-66
2021/06/28 00:15:23;;;;;;;7.70;7.00;;;21.80;93.20;;;21.94;85.60;98047.97;5055907;28;20678;-66
2021/06/28 00:17:52;;;;;;;7.93;7.27;;;21.80;93.20;;;21.93;85.60;98051.63;5056253;28;20695;-67
2021/06/28 00:20:25;;;;;;;6.53;5.93;;;21.80;93.30;;;21.92;85.22;98055.28;5062523;28;20645;-67
2021/06/28 00:22:54;;;;;;;7.53;6.83;;;21.80;93.40;;;21.90;85.41;98049.31;5053859;28;20636;-66
2021/06/28 00:25:24;;;;;;;7.33;6.73;;;21.70;93.30;;;21.92;85.37;98048.16;5065553;28;20699;-66
2021/06/28 00:27:53;;;;;;;7.10;6.40;;;21.70;93.40;;;21.94;85.76;98048.81;5058412;28;20645;-66
2021/06/28 00:30:30;;;;;;;7.43;6.73;;;21.70;93.50;;;21.91;85.37;98040.38;5060129;28;20631;-67
2021/06/28 00:33:00;;;;;;;7.57;6.87;;;21.70;93.30;;;21.93;85.56;98041.00;5058646;28;20685;-66
2021/06/28 00:35:28;;;;;;;7.27;6.57;;;21.70;93.20;;;21.95;85.14;98044.31;5060910;28;20648;-67
2021/06/28 00:37:57;;;;;;;7.00;6.40;;;21.70;93.20;;;21.95;85.57;98039.00;5057766;28;20725;-66
2021/06/28 00:40:28;;;;;;;8.90;6.70;;;21.80;93.20;;;21.91;85.40;98035.88;5059950;28;21134;-66
2021/06/28 00:42:56;;;;;;;7.70;6.90;;;21.70;93.20;;;21.93;85.67;98038.34;5057953;28;20637;-66
2021/06/28 00:45:27;;;;;;;8.57;6.63;;;21.70;93.60;;;21.92;85.96;98032.22;5055962;28;20687;-66
2021/06/28 00:47:59;;;;;;;7.40;6.70;;;21.70;93.60;;;21.92;85.60;98036.69;5061935;28;21172;-66
2021/06/28 00:50:31;;;;;;;6.80;6.20;;;21.70;93.60;;;21.91;85.92;98035.88;5055873;28;20632;-66
2021/06/28 00:53:02;;;;;;;7.23;6.37;;;21.70;93.70;;;21.89;86.38;98032.56;5061474;28;20694;-66
2021/06/28 00:55:33;;;;;;;8.63;7.00;;;21.70;93.80;;;21.87;86.89;98031.09;5059931;28;20626;-66
2021/06/28 00:58:02;;;;;;;10.20;7.50;;;21.70;94.10;;;21.85;86.34;98027.78;5076590;28;20627;-67
2021/06/28 01:00:31;;;;;;;7.77;6.97;;;21.70;93.90;;;21.82;86.07;98025.47;5060270;28;20696;-67
2021/06/28 01:03:00;;;;;;;6.90;6.30;;;21.70;94.10;;;21.81;86.87;98024.66;5065120;28;20677;-67
2021/06/28 01:05:32;;;;;;;7.53;6.90;;;21.70;94.00;;;21.81;86.71;98011.38;5062844;28;21087;-66
2021/06/28 01:08:04;;;;;;;7.20;6.60;;;21.70;94.20;;;21.80;86.78;98007.06;5074302;28;21109;-66
2021/06/28 01:10:37;;;;;;;7.67;6.83;;;21.70;94.20;;;21.77;86.75;98012.72;5063276;28;20639;-67
2021/06/28 01:13:07;;;;;;;8.03;7.33;;;21.70;94.20;;;21.74;87.89;98008.75;5061331;28;21026;-66
2021/06/28 01:15:36;;;;;;;7.60;6.80;;;21.60;94.40;;;21.72;87.27;98011.59;5062046;28;20645;-67
2021/06/28 01:18:07;;;;;;;8.13;7.37;;;21.60;94.40;;;21.68;87.07;98012.97;5062447;28;20636;-67
2021/06/28 01:20:36;;;;;;;7.90;6.80;;;21.60;94.30;;;21.65;86.58;98013.31;5064350;28;20636;-67
2021/06/28 01:23:25;;;;;;;7.13;6.53;;;21.50;94.30;;;21.62;86.96;98011.00;5058809;28;20676;-66
2021/06/28 01:25:57;;;;;;;7.67;6.97;;;21.50;94.30;;;21.59;87.72;98014.00;5061652;28;21254;-66
2021/06/28 01:28:27;;;;;;;7.10;6.50;;;21.50;94.50;;;21.58;87.65;98014.19;5062819;28;20691;-66
2021/06/28 01:31:02;;;;;;;7.87;7.17;;;21.50;94.60;;;21.56;87.81;98014.34;5057888;28;20982;-66
2021/06/28 01:33:31;;;;;;;7.70;7.00;;;21.40;94.70;;;21.54;87.44;98016.34;5064708;28;21247;-66
2021/06/28 01:36:00;;;;;;;7.40;6.57;;;21.40;94.60;;;21.50;87.47;98014.19;5063740;28;21093;-66
2021/06/28 01:38:30;;;;;;;7.70;7.00;;;21.40;94.60;;;21.47;87.31;98010.09;5062806;28;20648;-66
2021/06/28 01:40:58;;;;;;;7.53;6.70;;;21.40;94.50;;;21.47;87.85;98003.94;5060484;28;20688;-66
2021/06/28 01:43:27;;;;;;;7.50;6.87;;;21.30;94.40;;;21.46;87.19;98011.06;5059249;28;20634;-67
2021/06/28 01:45:56;;;;;;;7.30;6.60;;;21.30;94.60;;;21.47;87.97;98004.78;5066140;28;21113;-66
2021/06/28 01:48:25;;;;;;;7.30;6.60;;;21.30;94.60;;;21.46;86.77;98004.94;5062866;28;20674;-66
2021/06/28 01:50:54;;;;;;;7.13;6.53;;;21.30;94.80;;;21.44;88.43;97999.78;5062888;28;20648;-66
2021/06/28 01:53:23;;;;;;;7.90;7.20;;;21.30;95.00;;;21.43;87.69;97992.81;5060097;28;20650;-66
2021/06/28 01:55:53;;;;;;;7.73;6.93;;;21.30;94.70;;;21.44;87.61;97988.31;5071012;28;20696;-66
2021/06/28 01:58:21;;;;;;;7.17;6.57;;;21.30;94.80;;;21.43;87.47;97978.72;5063937;28;21040;-66
2021/06/28 02:00:54;;;;;;;7.80;7.10;;;21.20;94.60;;;21.38;86.91;97968.63;5061138;28;20694;-66
2021/06/28 02:03:25;;;;;;;7.87;7.10;;;21.20;94.90;;;21.38;88.55;97978.41;5059399;28;20630;-66
2021/06/28 02:05:57;;;;;;;7.80;7.10;;;21.20;94.80;;;21.39;87.07;97969.44;5072956;28;21078;-66
2021/06/28 02:08:29;;;;;;;8.17;7.37;;;21.20;95.00;;;21.35;87.40;97973.47;5058681;28;20667;-66
2021/06/28 02:11:03;;;;;;;7.87;7.17;;;21.20;95.20;;;21.30;88.79;97973.97;5067730;28;21185;-66
2021/06/28 02:13:36;;;;;;;7.90;7.07;;;21.20;95.30;;;21.28;88.01;97975.13;5063551;28;20793;-66
2021/06/28 02:16:06;;;;;;;7.77;6.87;;;21.10;95.10;;;21.27;87.39;97972.66;5061714;28;21052;-66
2021/06/28 02:18:34;;;;;;;8.50;7.60;;;21.10;95.10;;;21.27;88.95;97975.31;5060292;28;20642;-66
2021/06/28 02:21:03;;;;;;;8.30;7.50;;;21.10;95.40;;;21.28;88.49;97975.97;5061920;28;20643;-66
2021/06/28 02:23:34;;;;;;;7.10;6.50;;;21.10;95.40;;;21.27;89.14;97970.00;5060835;28;21211;-66
2021/06/28 02:26:07;;;;;;;8.13;7.30;;;21.10;95.30;;;21.26;89.07;97971.00;5061504;28;20741;-66
2021/06/28 02:28:38;;;;;;;7.50;6.90;;;21.10;95.40;;;21.24;87.80;97967.69;5073637;28;20740;-66
2021/06/28 02:31:09;;;;;;;7.43;6.83;;;21.10;95.40;;;21.22;89.44;97978.47;5060507;28;20646;-66
2021/06/28 02:33:40;;;;;;;8.70;7.20;;;21.10;95.90;;;21.21;89.24;97965.38;5061367;28;20663;-66
2021/06/28 02:36:10;;;;;;;8.43;7.50;;;21.10;95.60;;;21.19;88.72;97962.09;5058952;28;20677;-66
2021/06/28 02:38:40;;;;;;;8.13;6.93;;;21.10;95.60;;;21.18;88.61;97955.13;5061474;28;20631;-66
2021/06/28 02:41:11;;;;;;;7.90;7.10;;;21.10;95.60;;;21.13;87.73;97946.88;5063546;28;20653;-66
2021/06/28 02:44:00;;;;;;;7.30;6.70;;;21.00;95.70;;;21.11;89.08;97951.50;5011150;28;21231;-66
2021/06/28 02:46:29;;;;;;;8.03;7.30;;;21.00;95.70;;;21.08;89.53;97949.19;5061382;28;20637;-66
2021/06/28 02:48:57;;;;;;;8.23;6.30;;;21.00;95.70;;;21.07;88.13;97942.25;5060487;28;20737;-67
2021/06/28 02:51:26;;;;;;;7.73;7.07;;;21.00;95.70;;;21.06;89.08;97949.38;5066044;28;20674;-66
2021/06/28 02:53:55;;;;;;;7.20;6.60;;;20.90;95.70;;;21.06;88.74;97951.19;5059209;28;20663;-67
2021/06/28 02:56:25;;;;;;;8.70;6.70;;;21.00;95.70;;;21.06;88.58;97961.81;5061621;28;20732;-66
2021/06/28 02:58:58;;;;;;;8.43;7.63;;;20.90;96.00;;;21.04;88.99;97974.44;5065513;28;20702;-66
2021/06/28 03:01:40;;;;;;;8.30;7.50;;;21.00;95.70;;;21.03;89.46;97967.47;5062666;27;20824;-66
2021/06/28 03:04:21;;;;;;;8.17;7.37;;;20.90;96.00;;;21.03;89.31;97956.84;5092349;27;21408;-65
2021/06/28 03:07:02;;;;;;;8.23;7.50;;;20.90;95.70;;;21.02;88.77;97960.53;5146650;27;20842;-65
2021/06/28 03:09:44;;;;;;;8.80;7.90;;;20.90;95.60;;;21.03;89.14;97967.47;5103106;27;20845;-65
2021/06/28 03:12:25;;;;;;;8.20;7.40;;;20.90;95.60;;;21.05;89.41;97978.72;5138702;27;20824;-66
2021/06/28 03:15:10;;;;;;;7.37;6.77;;;20.90;95.60;;;21.05;89.35;97982.22;5094606;27;20830;-65
2021/06/28 03:17:51;;;;;;;7.50;6.90;;;20.90;95.60;;;21.06;89.03;97993.66;5108515;27;20830;-65
2021/06/28 03:20:33;;;;;;;8.00;7.07;;;20.90;95.60;;;21.07;87.93;97992.66;5071945;27;20831;-65
2021/06/28 03:23:14;;;;;;;7.93;7.23;;;21.00;95.60;;;21.07;88.67;97996.13;5076473;28;21417;-65
2021/06/28 03:25:56;;;;;;;7.97;7.20;;;20.90;95.40;;;21.08;88.60;97997.78;5060692;28;20840;-65
2021/06/28 03:28:37;;;;;;;7.60;6.90;;;21.00;95.30;;;21.10;88.22;98005.56;5101560;27;20826;-66
2021/06/28 03:31:18;;;;;;;8.07;7.37;;;21.00;95.20;;;21.09;88.10;98004.72;5063302;27;20824;-65
2021/06/28 03:34:00;;;;;;;8.33;7.53;;;21.00;95.10;;;21.10;87.69;98006.41;5084500;27;20841;-66
2021/06/28 03:36:42;;;;;;;8.13;7.43;;;21.00;95.20;;;21.10;88.45;98002.94;5077615;27;20829;-65
2021/06/28 03:39:24;;;;;;;7.73;6.97;;;21.00;95.10;;;21.08;88.62;98008.41;5062885;28;20821;-65
2021/06/28 03:42:06;;;;;;;7.23;6.53;;;21.00;95.20;;;21.05;89.38;98018.50;5081315;27;20852;-65
2021/06/28 03:44:47;;;;;;;8.10;7.30;;;20.90;95.30;;;21.05;89.01;98019.34;5103659;27;20821;-66
2021/06/28 03:47:28;;;;;;;8.17;7.37;;;20.90;95.30;;;21.03;88.32;98013.41;5125313;27;20831;-65
2021/06/28 03:50:14;;;;;;;7.93;7.23;;;20.90;95.20;;;21.06;88.62;98028.13;5077729;27;20823;-66
2021/06/28 03:52:54;;;;;;;7.73;7.13;;;21.00;95.10;;;21.02;88.38;98025.00;5071023;27;20823;-66
2021/06/28 03:55:36;;;;;;;7.90;7.20;;;21.00;95.10;;;21.03;87.50;98020.50;5081636;27;20831;-65
2021/06/28 03:58:19;;;;;;;8.20;7.50;;;20.90;95.30;;;21.00;88.71;98018.19;5063528;27;20926;-66
2021/06/28 04:01:01;;;;;;;8.40;7.60;;;20.90;95.30;;;20.99;89.26;98014.72;5129778;27;20819;-66
2021/06/28 04:03:41;;;;;;;8.10;7.30;;;20.90;95.40;;;20.98;89.33;98002.44;5090813;27;20839;-65
2021/06/28 04:06:23;;;;;;;7.93;7.23;;;20.90;95.50;;;20.98;89.50;97996.34;5072741;27;21247;-66
2021/06/28 04:09:05;;;;;;;9.23;7.30;;;20.90;95.40;;;20.97;88.48;97986.72;5136421;27;20826;-66
2021/06/28 04:11:47;;;;;;;7.93;6.60;;;20.90;95.50;;;20.96;88.32;97969.97;5122435;27;20843;-65
2021/06/28 04:14:28;;;;;;;7.23;6.53;;;20.90;95.60;;;20.96;87.87;97956.72;5073774;27;20852;-65
2021/06/28 04:17:11;;;;;;;6.40;5.67;;;20.90;95.60;;;20.95;88.09;97949.75;5102335;27;20829;-65
2021/06/28 04:19:56;;;;;;;6.47;5.93;;;20.90;95.50;;;20.95;88.88;97952.41;5136981;27;20838;-65
2021/06/28 04:22:39;;;;;;;6.23;5.63;;;20.80;95.40;;;20.97;88.93;97954.88;5074972;28;21181;-65
2021/06/28 04:25:24;;;;;;;5.17;4.67;;;20.80;95.40;;;21.01;88.47;97919.88;5081252;27;21179;-67
2021/06/28 04:28:06;;;;;;;5.67;5.07;;;20.90;95.20;;;21.02;88.06;97924.19;5074751;28;20851;-65
2021/06/28 04:30:47;;;;;;;6.10;5.60;;;20.90;95.20;;;21.08;89.46;97943.88;5062828;27;20844;-67
2021/06/28 04:33:28;;;;;;;7.23;6.53;;;20.90;95.60;;;21.11;89.98;97949.69;5066124;28;20815;-65
2021/06/28 04:36:10;;;;;;;7.97;7.20;;;21.00;96.00;;;21.13;88.96;97960.13;5115389;27;20906;-66
2021/06/28 04:38:51;;;;;;;7.87;7.17;;;21.00;96.10;;;21.12;89.56;97971.72;5078400;27;20831;-65
2021/06/28 04:41:32;;;;;;;8.13;7.40;;;21.00;96.00;;;21.12;89.87;97971.72;5063870;27;20824;-66
2021/06/28 04:44:14;;;;;;;7.60;6.87;;;21.00;96.10;;;21.14;89.26;97975.88;5106078;27;20827;-66
2021/06/28 04:46:58;;;;;;;7.90;7.10;;;21.00;96.20;;;21.18;89.36;97965.75;5094873;27;20963;-67
2021/06/28 04:49:40;;;;;;;6.80;6.20;;;21.00;96.10;;;21.23;89.32;97974.84;5063305;27;20824;-65
2021/06/28 04:52:21;;;;;;;9.30;6.87;;;21.10;96.20;;;21.27;88.96;97970.81;5072755;27;20830;-65
2021/06/28 04:55:04;;;;;;;7.80;6.93;;;21.10;96.40;;;21.31;89.62;97966.84;5062684;27;20834;-65
2021/06/28 04:57:49;;;;;;;7.97;7.17;;;21.10;96.50;;;21.36;89.30;97969.78;5159336;27;20833;-65
2021/06/28 05:00:30;;;;;;;9.00;6.53;;;21.20;96.60;;;21.42;89.27;97959.31;5081673;27;20835;-65
2021/06/28 05:03:11;;;;;;;8.20;7.50;;;21.20;96.30;;;21.46;88.45;97962.47;5125677;27;20848;-65
2021/06/28 05:05:56;;;;;;;8.23;7.50;;;21.30;95.80;;;21.49;88.20;97949.66;5100059;27;21462;-67
2021/06/28 05:08:37;;;;;;;8.03;7.33;;;21.30;95.80;;;21.57;88.11;97952.25;5080219;27;20844;-67
2021/06/28 05:11:21;;;;;;;8.20;7.40;;;21.30;95.80;;;21.61;88.30;97963.38;5062975;27;20838;-67
2021/06/28 05:14:02;;;;;;;7.83;7.07;;;21.40;95.70;;;21.68;88.74;97961.66;5114875;27;21428;-67
2021/06/28 05:16:43;;;;;;;8.93;7.03;;;21.50;96.00;;;21.75;88.71;97958.13;5081261;27;20804;-67
2021/06/28 05:19:28;;;;;;;7.70;6.93;;;21.60;96.10;;;21.80;88.43;97966.41;5055116;27;20843;-66
2021/06/28 05:22:12;;;;;;;7.77;6.87;;;21.60;95.90;;;21.83;87.73;97972.19;5077477;27;20837;-65
2021/06/28 05:24:54;;;;;;;8.27;7.47;;;21.60;95.70;;;21.91;87.57;97976.59;5059664;27;20867;-67
2021/06/28 05:27:36;;;;;;;8.00;7.20;;;21.70;95.90;;;21.99;86.96;97984.50;5060747;28;20827;-65
2021/06/28 05:30:20;;;;;;;7.90;7.20;;;21.80;95.60;;;22.06;87.69;97986.28;5139061;27;20825;-67
2021/06/28 05:33:01;;;;;;;11.57;7.57;;;21.80;95.50;;;22.06;86.54;97978.31;5081399;27;21210;-66
2021/06/28 05:35:43;;;;;;;10.50;7.13;;;21.90;95.40;;;22.09;87.21;97988.59;5075466;27;20878;-65
2021/06/28 05:38:26;;;;;;;7.63;6.83;;;21.90;95.10;;;22.18;87.02;97989.34;5115930;27;20845;-67
2021/06/28 05:41:07;;;;;;;8.17;7.47;;;21.90;95.10;;;22.40;86.30;97978.69;5100347;27;21256;-67
2021/06/28 05:43:48;;;;;;;8.03;7.23;;;22.10;95.10;;;22.74;84.85;97978.00;5072287;27;21433;-67
2021/06/28 05:46:30;;;;;;;8.20;7.40;;;22.40;94.60;;;23.28;83.88;97993.53;5063483;27;21236;-66
2021/06/28 05:49:11;;;;;;;6.47;5.70;;;22.80;94.40;;;23.86;80.95;97993.41;5100045;27;21194;-66
2021/06/28 05:51:53;;;;;;;6.37;5.73;;;23.30;93.10;;;24.45;80.24;97985.00;5100362;27;20829;-66
2021/06/28 05:54:36;;;;;;;5.80;5.30;;;23.80;92.10;;;25.04;77.96;97992.44;5079636;27;21389;-67
2021/06/28 05:57:24;;;;;;;6.27;5.73;;;24.50;90.90;;;25.55;76.34;97997.19;5078694;27;20856;-66
2021/06/28 06:00:09;;;;;;;6.67;5.37;;;25.00;90.00;;;25.88;75.04;98005.16;5121867;27;20857;-67
2021/06/28 06:03:00;;;;;;;6.83;6.13;;;25.40;86.40;;;26.08;74.10;98002.53;5126139;27;20837;-67
2021/06/28 06:05:41;;;;;;;6.00;5.40;;;25.60;85.80;;;26.35;74.03;98005.88;5096961;27;22029;-66
2021/06/28 06:08:24;;;;;;;5.97;5.47;;;25.90;84.70;;;26.41;73.33;97999.69;5098524;27;21188;-67
2021/06/28 06:11:08;;;;;;;5.43;5.03;;;26.00;82.90;;;26.67;72.22;97997.84;5113213;27;20861;-67
2021/06/28 06:13:50;;;;;;;5.30;4.80;;;26.30;81.90;;;26.98;70.38;97994.56;5083237;27;20853;-68
2021/06/28 06:16:31;;;;;;;4.20;3.90;;;26.60;79.80;;;27.23;69.42;97997.16;5139737;27;20871;-66
2021/06/28 06:19:13;;;;;;;5.13;4.73;;;26.80;77.00;;;27.51;68.16;98003.06;5091332;27;20757;-66
2021/06/28 06:21:54;;;;;;;4.30;3.87;;;27.10;75.50;;;27.61;65.35;97993.53;5068294;27;20825;-67
2021/06/28 06:24:35;;;;;;;4.37;4.00;;;27.20;71.20;;;27.77;66.56;97997.59;5104909;27;20840;-67
2021/06/28 06:27:17;;;;;;;5.03;4.63;;;27.30;72.00;;;27.96;65.82;97997.47;5078014;27;20824;-66
2021/06/28 06:29:58;;;;;;;6.70;4.80;;;27.50;72.20;;;28.26;65.73;98002.06;5112849;27;21394;-66
2021/06/28 06:32:39;;;;;;;7.63;4.50;;;27.80;71.50;;;28.56;66.46;97990.47;5120617;27;20815;-67
2021/06/28 06:35:21;;;;;;;5.33;4.77;;;28.10;71.80;;;28.80;65.02;97992.34;5099833;27;20867;-66
2021/06/28 06:38:04;;;;;;;4.33;4.03;;;28.30;70.50;;;28.97;64.27;97989.94;5123211;27;21174;-66
2021/06/28 06:40:48;;;;;;;4.60;4.20;;;28.50;69.00;;;29.26;65.63;97982.81;5097885;27;20825;-68
2021/06/28 06:43:28;;;;;;;4.93;4.43;;;28.70;70.30;;;29.51;65.11;97997.84;5078802;28;20805;-67
2021/06/28 06:46:10;;;;;;;4.57;4.17;;;28.90;70.50;;;29.79;64.51;97998.13;5122137;27;20829;-68
2021/06/28 06:48:51;;;;;;;4.63;4.23;;;29.20;69.60;;;30.02;64.96;97995.53;5075946;28;20812;-69
2021/06/28 06:51:33;;;;;;;3.87;3.57;;;29.50;69.80;;;30.28;62.73;98006.75;5077745;28;20817;-68
2021/06/28 06:54:16;;;;;;;4.10;3.80;;;29.70;66.30;;;30.33;60.31;98006.88;5078814;27;21181;-68
2021/06/28 06:56:57;;;;;;;3.83;3.53;;;29.80;61.60;;;30.48;59.77;98015.38;5068847;27;20821;-68
2021/06/28 06:59:39;;;;;;;4.23;3.63;;;30.00;60.80;;;30.61;57.95;98007.91;5073585;28;20813;-69
2021/06/28 07:02:20;;;;;;;3.70;3.40;;;30.10;59.20;;;30.73;58.50;98010.59;5133991;27;20881;-68
2021/06/28 07:05:01;;;;;;;3.50;3.30;;;30.20;59.90;;;30.95;58.63;98018.75;5109587;27;21373;-67
2021/06/28 07:07:43;;;;;;;3.70;3.40;;;30.40;59.00;;;31.02;57.39;98015.94;5098448;27;20859;-67
2021/06/28 07:10:24;;;;;;;3.50;3.20;;;30.50;57.80;;;30.99;57.60;98019.13;5095924;27;20735;-67
2021/06/28 07:13:05;;;;;;;4.00;3.53;;;30.60;57.70;;;30.85;58.68;98024.91;5123926;27;20836;-68
2021/06/28 07:15:47;;;;;;;3.87;3.57;;;30.50;58.70;;;30.99;59.28;98022.63;5076793;27;20830;-68
2021/06/28 07:18:28;;;;;;;4.30;3.93;;;30.60;58.80;;;31.18;57.26;98016.03;5076277;27;21217;-68
2021/06/28 07:21:09;;;;;;;4.27;3.43;;;30.80;57.50;;;31.06;57.29;98020.63;5077425;27;20825;-69
2021/06/28 07:23:52;;;;;;;3.80;3.50;;;30.60;57.40;;;31.25;57.04;98024.03;5065869;28;20845;-68
2021/06/28 07:26:34;;;;;;;3.33;3.03;;;30.70;57.60;;;31.48;57.64;98020.28;5083658;27;20828;-69
2021/06/28 07:29:15;;;;;;;4.30;3.40;;;30.90;58.10;;;31.79;55.97;98029.84;5079126;27;20822;-67
2021/06/28 07:31:57;;;;;;;4.07;3.77;;;31.20;56.50;;;31.93;57.86;98032.03;5101933;27;21159;-69
2021/06/28 07:34:38;;;;;;;3.73;3.43;;;31.40;57.40;;;32.02;56.43;98034.09;5066787;28;21176;-67
2021/06/28 07:37:19;;;;;;;3.50;3.20;;;31.40;56.10;;;32.17;55.88;98036.28;5105065;27;20823;-69
2021/06/28 07:40:01;;;;;;;3.40;3.10;;;31.60;55.60;;;32.18;56.48;98035.25;5085395;27;20845;-67
2021/06/28 07:42:42;;;;;;;3.43;3.20;;;31.70;55.20;;;32.22;56.11;98031.81;5068249;27;20828;-67
2021/06/28 07:45:24;;;;;;;3.23;3.03;;;31.80;55.30;;;32.13;54.60;98024.31;5059768;27;21256;-67
2021/06/28 07:48:07;;;;;;;3.10;2.90;;;31.70;53.30;;;32.00;55.14;98022.72;5096129;27;20814;-67
2021/06/28 07:50:49;;;;;;;3.10;2.90;;;31.50;53.80;;;32.13;56.14;98014.34;5099047;27;20823;-69
2021/06/28 07:53:31;;;;;;;3.70;3.50;;;31.70;54.50;;;32.24;53.62;98018.88;5073805;28;20754;-67
2021/06/28 07:56:17;;;;;;;3.23;2.93;;;31.80;53.30;;;32.13;53.88;98017.06;5069389;27;20829;-69
2021/06/28 07:58:59;;;;;;;4.10;3.70;;;31.60;53.30;;;32.06;55.12;98021.78;5068581;27;20824;-69
2021/06/28 08:01:41;;;;;;;3.50;3.23;;;31.60;54.60;;;32.33;56.62;98020.13;5074980;27;20833;-69
2021/06/28 08:04:22;;;;;;;3.30;3.10;;;31.80;56.10;;;32.55;55.07;98018.38;5073710;27;21154;-69
2021/06/28 08:07:04;;;;;;;3.73;3.43;;;32.00;54.00;;;32.58;54.42;98020.59;5116065;27;20842;-67
2021/06/28 08:09:44;;;;;;;3.67;3.37;;;32.00;52.90;;;32.68;53.61;98013.47;5077857;27;20825;-69
2021/06/28 08:12:26;;;;;;;3.87;3.47;;;32.20;52.60;;;32.54;52.77;98019.47;5081000;27;20831;-69
2021/06/28 08:15:09;;;;;;;3.93;3.63;;;32.10;51.70;;;32.47;54.02;98014.19;5086087;27;21622;-67
2021/06/28 08:17:52;;;;;;;4.23;3.90;;;32.00;51.60;;;32.65;54.14;98002.34;5112603;27;21386;-69
2021/06/28 08:20:37;;;;;;;3.80;3.50;;;32.20;52.90;;;32.71;53.71;98006.78;5100006;27;20810;-67
2021/06/28 08:23:19;;;;;;;4.20;3.90;;;32.20;52.20;;;32.82;56.39;98006.66;5085889;27;21374;-69
2021/06/28 08:26:01;;;;;;;4.00;3.70;;;32.30;55.00;;;32.94;54.54;98004.72;5078077;28;20847;-67
2021/06/28 08:28:44;;;;;;;4.23;3.83;;;32.50;53.00;;;32.81;54.24;97996.09;5058973;27;20822;-68
2021/06/28 08:31:25;;;;;;;3.80;3.50;;;32.40;52.00;;;32.79;54.08;98001.75;5080949;27;20804;-68
2021/06/28 08:34:24;;;;;;;4.10;3.80;;;32.40;52.50;;;32.37;55.44;97996.94;5104813;27;20823;-67
2021/06/28 08:37:06;;;;;;;4.37;3.97;;;32.00;52.60;;;32.31;55.05;98003.34;5101240;27;20814;-69
2021/06/28 08:39:47;;;;;;;4.37;3.97;;;31.90;53.30;;;32.24;55.21;97993.75;5071516;27;20841;-68
2021/06/28 08:42:32;;;;;;;6.87;5.60;;;31.90;52.60;;;32.06;55.69;97978.56;5118226;27;20803;-68
2021/06/28 08:45:14;;;;;;;14.47;7.80;;;31.60;52.50;;;32.22;54.83;97983.19;5097556;27;20802;-67
2021/06/28 08:47:56;;;;;;;4.80;4.40;;;31.80;53.50;;;32.29;55.69;97986.53;5097843;27;20804;-67
2021/06/28 08:50:41;;;;;;;4.60;4.20;;;31.80;54.10;;;32.47;53.59;97984.47;5096463;27;20822;-67
2021/06/28 08:53:24;;;;;;;4.63;3.90;;;32.00;53.10;;;32.35;54.04;97982.06;5121963;27;21412;-67
2021/06/28 08:56:07;;;;;;;4.43;4.03;;;31.90;52.80;;;32.47;56.78;97972.84;5080165;27;20800;-67
2021/06/28 08:58:48;;;;;;;4.00;3.60;;;32.00;54.70;;;32.54;54.41;97976.22;5096412;27;20834;-67
2021/06/28 09:01:31;;;;;;;4.30;4.00;;;32.00;53.20;;;32.55;54.32;97973.28;5084189;27;20819;-68
2021/06/28 09:04:13;;;;;;;4.27;3.87;;;32.10;51.90;;;32.56;54.30;97980.28;5082206;27;20831;-67
2021/06/28 09:06:54;;;;;;;4.10;3.80;;;32.10;51.60;;;32.67;54.47;97974.00;5136844;27;20851;-68
2021/06/28 09:09:37;;;;;;;3.40;3.20;;;32.20;52.60;;;32.48;52.05;97986.13;5100443;27;20830;-68
2021/06/28 09:12:20;;;;;;;8.40;3.53;;;32.10;49.90;;;32.31;52.97;97976.34;5136203;27;20820;-68
2021/06/28 09:15:02;;;;;;;5.63;3.60;;;31.90;50.30;;;32.31;52.73;97981.75;5077026;27;20804;-68
2021/06/28 09:17:43;;;;;;;4.20;3.90;;;31.90;51.00;;;32.24;52.18;97980.25;5077758;27;20824;-68
2021/06/28 09:20:24;;;;;;;3.70;3.40;;;31.80;49.90;;;32.15;51.51;97982.50;5082241;27;20806;-68
2021/06/28 09:23:21;;;;;;;3.70;3.40;;;31.80;49.20;;;32.26;53.47;97984.31;5077639;27;20819;-67
2021/06/28 09:26:01;;;;;;;3.80;3.50;;;31.80;50.40;;;32.19;52.63;97990.94;5078077;28;20813;-68
2021/06/28 09:28:47;;;;;;;3.70;3.40;;;31.70;50.40;;;32.33;53.94;97995.00;5081317;28;20811;-68
2021/06/28 09:31:42;;;;;;;4.00;3.70;;;31.80;52.00;;;32.45;53.85;98000.13;5076003;27;20821;-69
2021/06/28 09:34:24;;;;;;;3.77;3.47;;;31.90;52.10;;;32.70;54.02;97994.31;5073624;27;21367;-67
2021/06/28 09:37:05;;;;;;;4.07;3.63;;;32.10;51.90;;;32.73;52.98;97996.53;5098575;27;20839;-69
2021/06/28 09:39:48;;;;;;;3.33;3.13;;;32.20;51.20;;;32.71;52.60;98002.16;5092124;27;20808;-68
2021/06/28 09:42:30;;;;;;;3.90;3.60;;;32.20;50.00;;;32.86;54.72;98013.22;5077066;27;20813;-68
2021/06/28 09:45:19;;;;;;;3.70;3.40;;;32.30;51.90;;;33.04;53.47;98007.59;5119385;27;20825;-67
2021/06/28 09:48:01;;;;;;;3.63;3.33;;;32.50;50.60;;;33.18;53.50;98004.28;5124795;27;21208;-67
2021/06/28 09:50:48;;;;;;;3.25;2.95;;;32.60;50.40;;;33.30;55.73;97999.59;5076432;27;24538;-69
2021/06/28 09:54:21;;;;;;;3.63;3.40;;;32.80;53.80;;;33.46;53.51;97998.78;5132246;27;24545;-68
2021/06/28 09:57:21;;;;;;;4.20;3.90;;;32.90;50.90;;;33.37;51.30;97995.63;5113838;27;24529;-68
2021/06/28 10:00:26;;;;;;;3.13;2.92;;;32.90;48.70;;;33.29;51.85;97992.56;5092995;27;24451;-68
2021/06/28 10:03:33;;;;;;;3.40;3.20;;;32.90;48.50;;;33.20;51.16;97991.34;5153378;27;24586;-69
2021/06/28 10:06:32;;;;;;;4.60;3.20;;;32.80;47.20;;;33.14;53.37;97986.94;5097580;27;24595;-68
2021/06/28 10:09:33;;;;;;;3.63;3.33;;;32.70;49.40;;;33.22;53.63;97975.69;5097664;27;24587;-68
2021/06/28 10:12:32;;;;;;;25.77;23.63;;;32.80;50.00;;;33.37;56.62;97979.41;5200115;27;24612;-69
2021/06/28 10:15:30;;;;;;;4.50;4.10;;;32.90;53.10;;;33.56;52.15;97974.53;5114331;27;24561;-68
2021/06/28 10:18:44;;;;;;;5.55;3.60;;;33.00;49.10;;;33.61;55.01;97975.41;5120614;27;24903;-68
2021/06/28 10:21:40;;;;;;;3.90;3.60;;;33.10;51.40;;;33.67;53.41;97969.00;5099712;27;24544;-68
2021/06/28 10:24:37;;;;;;;4.20;3.90;;;33.10;49.90;;;33.79;52.63;97971.59;5093031;27;24545;-69
2021/06/28 10:27:36;;;;;;;10.60;9.60;;;33.30;50.10;;;33.72;53.20;97954.69;5113159;27;24596;-68
2021/06/28 10:30:33;;;;;;;4.10;3.10;;;33.30;50.10;;;33.69;53.08;97963.31;5102369;27;24545;-68
2021/06/28 10:33:34;;;;;;;3.80;3.50;;;33.30;49.70;;;33.60;54.29;97962.13;5206441;27;24573;-68
2021/06/28 10:36:42;;;;;;;3.83;3.53;;;33.20;50.40;;;33.60;53.27;97962.13;5127893;27;24565;-69
2021/06/28 10:39:39;;;;;;;3.43;3.20;;;33.10;49.70;;;33.60;51.03;97956.72;5093763;27;24573;-69
2021/06/28 10:42:39;;;;;;;3.90;3.50;;;33.10;47.70;;;33.57;50.31;97951.81;5095970;27;24612;-68
2021/06/28 10:45:43;;;;;;;3.53;3.33;;;33.10;46.80;;;33.50;50.71;97952.00;5091155;27;24585;-69
2021/06/28 10:48:31;;;;;;;3.90;3.60;;;33.00;47.00;;;33.44;50.26;97947.59;5094095;27;24995;-68
2021/06/28 10:51:15;;;;;;;3.60;3.40;;;33.00;46.30;;;33.36;50.17;97949.88;5073241;27;20937;-69
2021/06/28 10:54:34;;;;;;;3.37;3.17;;;33.00;46.40;;;33.26;50.88;97944.34;5152510;27;24594;-68
2021/06/28 10:57:40;;;;;;;3.93;3.63;;;32.80;47.50;;;33.29;51.35;97943.84;5072695;27;21182;-69
2021/06/28 11:00:52;;;;;;;3.73;3.43;;;32.90;47.20;;;33.18;50.58;97936.66;5073400;28;20639;-69
2021/06/28 11:03:40;;;;;;;4.10;3.30;;;32.80;47.00;;;32.97;50.64;97937.47;5073091;28;20627;-69
2021/06/28 11:06:27;;;;;;;3.87;3.57;;;32.50;46.20;;;32.83;50.93;97932.59;5072212;28;20659;-69
2021/06/28 11:09:14;;;;;;;3.90;3.60;;;32.40;46.90;;;32.90;51.98;97930.56;5073180;28;20624;-69
2021/06/28 11:12:04;;;;;;;4.10;3.70;;;32.40;48.00;;;32.98;51.09;97932.84;5070806;28;20655;-69
2021/06/28 11:14:54;;;;;;;4.03;3.70;;;32.50;47.80;;;32.91;51.61;97929.47;5075814;28;20631;-68
2021/06/28 11:17:47;;;;;;;3.67;3.40;;;32.50;47.60;;;32.83;51.29;97922.59;5070695;28;20635;-68